Time;durP1;ratioP1;P1;durP2;ratioP2;P2;SDS_P1;SDS_P2;PMS_P1;PMS_P2;Temp;Humidity;BMP_temperature;BMP_pressure;BME280_temperature;BME280_humidity;BME280_pressure;Samples;Min_cycle;Max_cycle;Signal;HPM_P1;HPM_P2
2023/04/17 00:00:10;;;;;;;39.95;16.30;;;9.00;99.90;;;;;;5110305;28;20105;-69
2023/04/17 00:02:39;;;;;;;;;;;9.00;99.90;;;;;;5110834;28;20184;-69
2023/04/17 00:05:09;;;;;;;43.28;17.33;;;9.00;99.90;;;;;;5081368;28;19928;-68
2023/04/17 00:07:37;;;;;;;50.70;17.45;;;9.00;99.90;;;;;;5093296;28;20479;-70
2023/04/17 00:10:06;;;;;;;41.03;15.93;;;9.00;99.90;;;;;;5077886;28;20047;-70
2023/04/17 00:12:32;;;;;;;39.47;16.83;;;9.00;99.90;;;;;;5094477;28;20056;-70
2023/04/17 00:14:57;;;;;;;37.03;15.40;;;9.00;99.90;;;;;;5093972;28;20060;-73
2023/04/17 00:17:23;;;;;;;40.70;16.08;;;9.00;99.90;;;;;;5101958;28;20052;-69
2023/04/17 00:19:49;;;;;;;48.78;17.55;;;9.00;99.90;;;;;;5114563;28;20048;-69
2023/04/17 00:22:15;;;;;;;44.65;16.60;;;9.00;99.90;;;;;;5104528;28;20156;-69
2023/04/17 00:24:40;;;;;;;41.60;15.70;;;9.00;99.90;;;;;;5100351;28;20509;-69
2023/04/17 00:27:06;;;;;;;41.97;17.08;;;9.00;99.90;;;;;;5110695;28;20109;-69
2023/04/17 00:29:32;;;;;;;41.67;16.20;;;9.00;99.90;;;;;;5109067;28;20036;-69
2023/04/17 00:31:59;;;;;;;47.20;17.75;;;9.00;99.90;;;;;;5093616;28;20056;-73
2023/04/17 00:34:24;;;;;;;46.30;17.25;;;9.00;99.90;;;;;;5095505;28;20093;-70
2023/04/17 00:36:50;;;;;;;43.50;16.77;;;9.00;99.90;;;;;;5114649;28;20047;-69
2023/04/17 00:39:16;;;;;;;41.63;16.67;;;9.00;99.90;;;;;;5113037;28;20043;-71
2023/04/17 00:41:41;;;;;;;47.20;19.25;;;9.00;99.90;;;;;;5096531;28;20066;-69
2023/04/17 00:44:07;;;;;;;49.13;18.85;;;9.00;99.90;;;;;;5113810;28;20083;-71
2023/04/17 00:46:33;;;;;;;48.95;18.83;;;9.00;99.90;;;;;;5096397;28;20039;-71
2023/04/17 00:49:00;;;;;;;51.72;19.38;;;9.00;99.90;;;;;;5112986;28;20123;-74
2023/04/17 00:51:26;;;;;;;51.65;18.20;;;9.00;99.90;;;;;;5060141;28;20123;-69
2023/04/17 00:53:53;;;;;;;49.22;19.42;;;9.00;99.90;;;;;;5075040;28;20109;-69
2023/04/17 00:56:20;;;;;;;53.22;18.13;;;9.00;99.90;;;;;;5093490;28;20094;-69
2023/04/17 00:58:46;;;;;;;53.67;19.33;;;9.00;99.90;;;;;;5083040;28;20059;-69
2023/04/17 01:01:12;;;;;;;48.33;17.90;;;9.00;99.90;;;;;;5112446;28;20469;-69
2023/04/17 01:03:38;;;;;;;49.35;16.52;;;9.00;99.90;;;;;;5094812;28;20079;-69
2023/04/17 01:06:04;;;;;;;52.63;18.73;;;9.00;99.90;;;;;;5078741;28;20051;-69
2023/04/17 01:08:41;;;;;;;56.10;18.92;;;9.00;99.90;;;;;;5083145;28;20040;-70
2023/04/17 01:11:08;;;;;;;49.42;18.75;;;9.10;99.90;;;;;;5094310;28;20051;-69
2023/04/17 01:13:42;;;;;;;50.13;19.55;;;9.10;99.90;;;;;;5103394;28;20075;-69
2023/04/17 01:16:08;;;;;;;49.85;18.80;;;9.00;99.90;;;;;;5065955;28;20061;-69
2023/04/17 01:18:33;;;;;;;54.55;19.40;;;9.00;99.90;;;;;;5050202;28;20063;-70
2023/04/17 01:21:00;;;;;;;56.22;19.33;;;9.00;99.90;;;;;;5065201;28;20153;-69
2023/04/17 01:23:27;;;;;;;59.92;20.88;;;9.00;99.90;;;;;;5055031;28;20059;-69
2023/04/17 01:25:53;;;;;;;58.95;18.90;;;9.00;99.90;;;;;;5070123;28;20516;-69
2023/04/17 01:28:19;;;;;;;55.50;18.85;;;9.10;99.90;;;;;;5070948;28;20040;-70
2023/04/17 01:30:45;;;;;;;50.58;19.08;;;9.00;99.90;;;;;;5053844;28;20046;-68
2023/04/17 01:33:11;;;;;;;62.92;20.63;;;9.00;99.90;;;;;;5069063;28;20059;-69
2023/04/17 01:35:37;;;;;;;57.15;19.00;;;9.00;99.90;;;;;;5068940;28;20382;-69
2023/04/17 01:38:02;;;;;;;49.72;19.15;;;9.00;99.90;;;;;;5066837;28;20056;-74
2023/04/17 01:40:28;;;;;;;50.28;17.85;;;9.10;99.90;;;;;;5067034;28;20052;-72
2023/04/17 01:42:54;;;;;;;49.25;18.88;;;9.10;99.90;;;;;;5051267;28;20044;-70
2023/04/17 01:45:20;;;;;;;49.30;18.83;;;9.10;99.90;;;;;;5049933;28;20045;-70
2023/04/17 01:47:46;;;;;;;50.50;17.80;;;9.00;99.90;;;;;;5049998;28;20100;-69
2023/04/17 01:50:12;;;;;;;53.10;19.15;;;9.00;99.90;;;;;;5049066;28;20095;-69
2023/04/17 01:52:38;;;;;;;44.95;17.73;;;9.00;99.90;;;;;;5049616;28;20131;-70
2023/04/17 01:55:04;;;;;;;50.47;19.27;;;9.00;99.90;;;;;;5057342;28;20498;-76
2023/04/17 01:57:32;;;;;;;48.45;17.52;;;9.00;99.90;;;;;;5068983;28;20052;-70
2023/04/17 01:59:57;;;;;;;45.40;16.50;;;9.00;99.90;;;;;;5070502;28;20055;-71
2023/04/17 02:02:23;;;;;;;52.20;18.98;;;9.00;99.90;;;;;;5069779;28;20044;-72
2023/04/17 02:04:49;;;;;;;52.83;18.60;;;9.00;99.90;;;;;;5069579;28;20047;-70
2023/04/17 02:07:15;;;;;;;49.95;17.73;;;9.00;99.90;;;;;;5061310;28;20048;-70
2023/04/17 02:09:41;;;;;;;42.95;18.83;;;9.00;99.90;;;;;;5050111;28;20045;-71
2023/04/17 02:12:06;;;;;;;46.70;19.17;;;9.00;99.90;;;;;;5050656;28;20047;-74
2023/04/17 02:14:32;;;;;;;51.50;18.65;;;9.00;99.90;;;;;;5026333;28;1112894;-72
2023/04/17 02:16:58;;;;;;;50.28;19.10;;;9.00;99.90;;;;;;5067528;28;20386;-72
2023/04/17 02:19:24;;;;;;;43.85;16.27;;;9.00;99.90;;;;;;5104463;28;20055;-70
2023/04/17 02:21:50;;;;;;;51.42;19.90;;;9.00;99.90;;;;;;5084594;28;20039;-69
2023/04/17 02:24:15;;;;;;;46.65;17.73;;;9.00;99.90;;;;;;5110737;28;20515;-69
2023/04/17 02:26:41;;;;;;;50.72;17.50;;;9.00;99.90;;;;;;5094242;28;20051;-70
2023/04/17 02:29:07;;;;;;;46.47;16.48;;;9.00;99.90;;;;;;5111042;28;20044;-74
2023/04/17 02:31:32;;;;;;;43.95;17.98;;;9.00;99.90;;;;;;5112437;28;20051;-70
2023/04/17 02:33:58;;;;;;;37.25;16.70;;;9.00;99.90;;;;;;5106748;28;20052;-70
2023/04/17 02:36:25;;;;;;;49.03;17.35;;;9.00;99.90;;;;;;5090410;28;20428;-70
2023/04/17 02:38:50;;;;;;;46.08;17.85;;;9.00;99.90;;;;;;5080133;28;20052;-71
2023/04/17 02:41:16;;;;;;;51.65;19.05;;;9.00;99.90;;;;;;5091388;28;20044;-69
2023/04/17 02:43:42;;;;;;;44.58;18.42;;;9.00;99.90;;;;;;5091988;28;20098;-70
2023/04/17 02:46:07;;;;;;;44.97;18.13;;;9.00;99.90;;;;;;5091628;28;20052;-74
2023/04/17 02:48:33;;;;;;;42.63;18.08;;;9.00;99.90;;;;;;5093990;28;20036;-70
2023/04/17 02:50:59;;;;;;;44.35;18.45;;;9.00;99.90;;;;;;5098364;28;20047;-70
2023/04/17 02:53:24;;;;;;;42.22;16.90;;;9.00;99.90;;;;;;5110556;28;20063;-70
2023/04/17 02:55:50;;;;;;;46.83;18.83;;;9.00;99.90;;;;;;5112132;28;20096;-70
2023/04/17 02:58:16;;;;;;;47.03;17.42;;;9.00;99.90;;;;;;5111318;28;20047;-71
2023/04/17 03:00:41;;;;;;;50.55;18.48;;;9.00;99.90;;;;;;5109374;28;20047;-70
2023/04/17 03:03:08;;;;;;;42.38;16.92;;;9.00;99.90;;;;;;5110486;28;20039;-70
2023/04/17 03:05:34;;;;;;;45.28;18.27;;;9.00;99.90;;;;;;5090909;28;20117;-69
2023/04/17 03:08:00;;;;;;;43.55;18.25;;;8.90;99.90;;;;;;5072111;28;20048;-70
2023/04/17 03:10:26;;;;;;;50.40;17.83;;;8.90;99.90;;;;;;5072838;28;20055;-69
2023/04/17 03:12:52;;;;;;;48.53;18.20;;;9.00;99.90;;;;;;5073155;28;20156;-70
2023/04/17 03:15:17;;;;;;;45.08;18.27;;;9.00;99.90;;;;;;5090320;28;20631;-71
2023/04/17 03:17:43;;;;;;;45.15;18.25;;;9.00;99.90;;;;;;5072553;28;20137;-69
2023/04/17 03:20:09;;;;;;;48.33;18.60;;;9.00;99.90;;;;;;5072632;28;20039;-70
2023/04/17 03:22:35;;;;;;;47.40;17.38;;;8.90;99.90;;;;;;5085125;28;20055;-69
2023/04/17 03:25:01;;;;;;;51.88;17.85;;;8.90;99.90;;;;;;5093456;28;20052;-70
2023/04/17 03:27:27;;;;;;;;;;;8.90;99.90;;;;;;5093299;28;20044;-70
2023/04/17 03:29:54;;;;;;;47.97;18.38;;;8.90;99.90;;;;;;5111671;28;19929;-71
2023/04/17 03:32:19;;;;;;;45.58;19.42;;;8.90;99.90;;;;;;5092260;28;20090;-70
2023/04/17 03:34:46;;;;;;;48.55;18.45;;;8.80;99.90;;;;;;5110797;28;20497;-69
2023/04/17 03:37:11;;;;;;;47.97;19.15;;;8.80;99.90;;;;;;5092388;28;20059;-75
2023/04/17 03:39:37;;;;;;;44.60;17.40;;;8.80;99.90;;;;;;5106415;28;20507;-70
2023/04/17 03:42:03;;;;;;;48.45;18.45;;;8.80;99.90;;;;;;5111214;28;20122;-70
2023/04/17 03:44:28;;;;;;;50.88;17.77;;;8.80;99.90;;;;;;5085565;28;20052;-71
2023/04/17 03:46:54;;;;;;;51.45;18.75;;;8.80;99.90;;;;;;5090314;28;20052;-70
2023/04/17 03:49:19;;;;;;;50.50;18.63;;;8.80;99.90;;;;;;5089509;28;20554;-72
2023/04/17 03:51:45;;;;;;;48.45;19.08;;;8.70;99.90;;;;;;5091138;28;20074;-70
2023/04/17 03:54:11;;;;;;;59.15;20.27;;;8.80;99.90;;;;;;5088568;28;20052;-69
2023/04/17 03:56:36;;;;;;;56.47;20.45;;;8.80;99.90;;;;;;5090308;28;20051;-69
2023/04/17 03:59:03;;;;;;;59.88;19.80;;;8.80;99.90;;;;;;5107120;28;20507;-69
2023/04/17 04:01:29;;;;;;;51.95;19.30;;;8.80;99.90;;;;;;5104283;28;20050;-70
2023/04/17 04:03:54;;;;;;;49.38;19.45;;;8.80;99.90;;;;;;5107262;28;20047;-70
2023/04/17 04:06:21;;;;;;;49.95;18.73;;;8.80;99.90;;;;;;5092591;28;20048;-70
2023/04/17 04:08:48;;;;;;;46.90;19.58;;;8.80;99.90;;;;;;5091802;28;20472;-69
2023/04/17 04:11:14;;;;;;;50.92;20.15;;;8.70;99.90;;;;;;5092871;28;20059;-74
2023/04/17 04:13:40;;;;;;;58.95;19.52;;;8.70;99.90;;;;;;5079919;28;20048;-70
2023/04/17 04:16:06;;;;;;;55.53;21.58;;;8.70;99.90;;;;;;5090715;28;20056;-69
2023/04/17 04:18:32;;;;;;;;;;;8.70;99.90;;;;;;5106776;28;20040;-70
2023/04/17 04:20:58;;;;;;;53.13;19.02;;;8.70;99.90;;;;;;5090882;28;19920;-70
2023/04/17 04:23:23;;;;;;;54.38;20.05;;;8.70;99.90;;;;;;5066547;28;20059;-71
2023/04/17 04:25:50;;;;;;;51.17;19.58;;;8.70;99.90;;;;;;5090544;28;20047;-71
2023/04/17 04:28:22;;;;;;;56.63;21.00;;;8.70;99.90;;;;;;5088743;28;20044;-74
2023/04/17 04:30:49;;;;;;;56.92;20.95;;;8.60;99.90;;;;;;5092921;28;20058;-71
2023/04/17 04:33:21;;;;;;;54.33;20.63;;;8.70;99.90;;;;;;5108682;28;20519;-75
2023/04/17 04:35:47;;;;;;;52.85;19.95;;;8.70;99.90;;;;;;5090515;28;20540;-69
2023/04/17 04:38:14;;;;;;;51.40;20.35;;;8.60;99.90;;;;;;5088077;28;20044;-70
2023/04/17 04:40:42;;;;;;;59.20;20.08;;;8.70;99.90;;;;;;5072153;28;20044;-69
2023/04/17 04:43:09;;;;;;;50.00;18.00;;;8.70;99.90;;;;;;5090187;28;20063;-69
2023/04/17 04:45:35;;;;;;;54.83;18.42;;;8.70;99.90;;;;;;5093904;28;20071;-69
2023/04/17 04:48:00;;;;;;;58.40;21.08;;;8.70;99.90;;;;;;5109714;28;20523;-69
2023/04/17 04:50:26;;;;;;;52.08;18.83;;;8.70;99.90;;;;;;5091461;28;20476;-70
2023/04/17 04:52:52;;;;;;;48.33;19.00;;;8.70;99.90;;;;;;5111662;28;20048;-69
2023/04/17 04:55:18;;;;;;;55.03;19.48;;;8.60;99.90;;;;;;5095940;28;20055;-74
2023/04/17 04:57:44;;;;;;;47.85;18.48;;;8.60;99.90;;;;;;5079322;28;20469;-69
2023/04/17 05:00:12;;;;;;;51.22;19.50;;;8.70;99.90;;;;;;5095346;28;20083;-71
2023/04/17 05:02:37;;;;;;;45.83;19.02;;;8.60;99.90;;;;;;5112917;28;20043;-70
2023/04/17 05:05:03;;;;;;;48.45;18.30;;;8.60;99.90;;;;;;5078213;28;20044;-70
2023/04/17 05:07:29;;;;;;;48.42;18.83;;;8.60;99.90;;;;;;5093171;28;20043;-71
2023/04/17 05:09:55;;;;;;;50.45;18.40;;;8.60;99.90;;;;;;5093519;28;20461;-69
2023/04/17 05:12:21;;;;;;;58.40;20.83;;;8.60;99.90;;;;;;5093388;28;20044;-70
2023/04/17 05:14:46;;;;;;;47.25;18.48;;;8.60;99.90;;;;;;5092161;28;20060;-69
2023/04/17 05:17:12;;;;;;;53.47;21.20;;;8.60;99.90;;;;;;5092849;28;20056;-70
2023/04/17 05:19:38;;;;;;;60.13;20.25;;;8.60;99.90;;;;;;5080313;28;20114;-70
2023/04/17 05:22:04;;;;;;;59.08;19.17;;;8.60;99.90;;;;;;5113606;28;20044;-71
2023/04/17 05:24:29;;;;;;;50.45;20.67;;;8.60;99.90;;;;;;5090776;28;20409;-70
2023/04/17 05:26:55;;;;;;;58.00;20.13;;;8.60;99.90;;;;;;5095593;28;20083;-70
2023/04/17 05:29:23;;;;;;;53.22;20.05;;;8.60;99.90;;;;;;5082525;28;20051;-69
2023/04/17 05:31:50;;;;;;;52.63;19.15;;;8.60;99.90;;;;;;5093111;28;20044;-70
2023/04/17 05:34:15;;;;;;;49.92;19.10;;;8.60;99.90;;;;;;5113032;28;20065;-69
2023/04/17 05:36:41;;;;;;;55.55;19.92;;;8.60;99.90;;;;;;5074405;28;20052;-70
2023/04/17 05:39:07;;;;;;;56.10;19.92;;;8.60;99.90;;;;;;5091564;28;20063;-70
2023/04/17 05:41:33;;;;;;;55.67;19.15;;;8.60;99.90;;;;;;5096211;28;20043;-72
2023/04/17 05:43:58;;;;;;;57.65;18.80;;;8.60;99.90;;;;;;5095387;28;20043;-69
2023/04/17 05:46:24;;;;;;;57.47;19.85;;;8.70;99.90;;;;;;5110391;28;20458;-70
2023/04/17 05:48:50;;;;;;;50.35;17.98;;;8.70;99.90;;;;;;5093731;28;20070;-70
2023/04/17 05:51:15;;;;;;;57.67;19.58;;;8.70;99.90;;;;;;5094749;28;20096;-70
2023/04/17 05:53:43;;;;;;;61.72;18.90;;;8.70;99.90;;;;;;5101076;28;20813;-70
2023/04/17 05:56:10;;;;;;;57.08;19.70;;;8.80;99.90;;;;;;5113152;28;20051;-71
2023/04/17 05:58:36;;;;;;;48.47;17.50;;;8.70;99.90;;;;;;5112546;28;20044;-69
2023/04/17 06:01:05;;;;;;;46.35;18.42;;;8.80;99.90;;;;;;5104922;28;20047;-69
2023/04/17 06:03:33;;;;;;;53.08;19.80;;;8.80;99.90;;;;;;5109838;28;20043;-69
2023/04/17 06:05:59;;;;;;;54.72;19.10;;;8.80;99.90;;;;;;5112920;28;20048;-70
2023/04/17 06:08:26;;;;;;;50.22;18.92;;;8.90;99.90;;;;;;5104429;28;20058;-69
2023/04/17 06:10:52;;;;;;;45.70;17.10;;;8.80;99.90;;;;;;5094225;28;20131;-67
2023/04/17 06:13:18;;;;;;;47.42;17.25;;;8.90;99.90;;;;;;5112691;28;20550;-67
2023/04/17 06:15:44;;;;;;;44.50;17.33;;;8.90;99.90;;;;;;5112169;28;20163;-67
2023/04/17 06:18:09;;;;;;;52.00;19.00;;;9.10;99.90;;;;;;5111038;28;20051;-66
2023/04/17 06:20:35;;;;;;;41.50;14.95;;;9.00;99.90;;;;;;5111783;28;20039;-70
2023/04/17 06:23:01;;;;;;;46.20;18.05;;;9.00;99.90;;;;;;5104920;28;20051;-64
2023/04/17 06:25:27;;;;;;;46.83;17.73;;;9.10;99.90;;;;;;5104254;28;20043;-69
2023/04/17 06:27:52;;;;;;;38.95;17.23;;;9.10;99.90;;;;;;5094539;28;20092;-70
2023/04/17 06:30:18;;;;;;;46.88;18.08;;;9.10;99.90;;;;;;5109495;28;20043;-68
2023/04/17 06:32:44;;;;;;;45.17;17.35;;;9.10;99.90;;;;;;5111336;28;20480;-69
2023/04/17 06:35:10;;;;;;;39.97;16.35;;;9.10;99.90;;;;;;5093747;28;20043;-69
2023/04/17 06:37:36;;;;;;;39.33;16.52;;;9.10;99.90;;;;;;5110906;28;20476;-68
2023/04/17 06:40:02;;;;;;;58.47;15.77;;;9.10;99.90;;;;;;5112212;28;20126;-68
2023/04/17 06:42:28;;;;;;;39.90;16.77;;;9.20;99.90;;;;;;5111685;28;20051;-70
2023/04/17 06:44:53;;;;;;;45.60;17.00;;;9.20;99.90;;;;;;5111755;28;20492;-70
2023/04/17 06:47:19;;;;;;;39.50;15.57;;;9.20;99.90;;;;;;5109508;28;20047;-69
2023/04/17 06:49:45;;;;;;;41.70;16.83;;;9.20;99.90;;;;;;5109565;28;20100;-68
2023/04/17 06:52:10;;;;;;;39.28;16.95;;;9.30;99.90;;;;;;5075868;28;20109;-70
2023/04/17 06:54:37;;;;;;;45.08;17.60;;;9.30;99.90;;;;;;5108408;28;20397;-69
2023/04/17 06:57:05;;;;;;;40.80;16.40;;;9.30;99.90;;;;;;5112032;28;20427;-68
2023/04/17 06:59:31;;;;;;;41.55;15.65;;;9.30;99.90;;;;;;5111243;28;20123;-69
2023/04/17 07:01:57;;;;;;;45.10;17.35;;;9.30;99.90;;;;;;5111508;28;20039;-68
2023/04/17 07:04:23;;;;;;;34.40;14.98;;;9.30;99.90;;;;;;5107562;28;20048;-70
2023/04/17 07:06:48;;;;;;;37.80;16.08;;;9.30;99.90;;;;;;5090721;28;20083;-71
2023/04/17 07:09:15;;;;;;;40.40;16.73;;;9.30;99.90;;;;;;5103291;28;20473;-70
2023/04/17 07:11:41;;;;;;;36.45;16.35;;;9.40;99.90;;;;;;5090631;28;20052;-69
2023/04/17 07:14:06;;;;;;;39.35;16.65;;;9.40;99.90;;;;;;5091346;28;20113;-69
2023/04/17 07:16:32;;;;;;;39.00;16.02;;;9.50;99.90;;;;;;5106184;28;20078;-72
2023/04/17 07:18:58;;;;;;;43.35;16.52;;;9.60;99.90;;;;;;5110568;28;20081;-70
2023/04/17 07:21:24;;;;;;;37.95;17.08;;;9.60;99.90;;;;;;5111591;28;20065;-69
2023/04/17 07:23:50;;;;;;;36.40;15.73;;;9.60;99.90;;;;;;5080916;28;20048;-72
2023/04/17 07:26:16;;;;;;;39.78;15.23;;;9.70;99.90;;;;;;5091166;28;20131;-70
2023/04/17 07:28:44;;;;;;;39.30;15.50;;;9.70;99.90;;;;;;5089302;28;20052;-69
2023/04/17 07:31:10;;;;;;;37.35;16.02;;;9.80;99.90;;;;;;5086796;28;20047;-70
2023/04/17 07:33:37;;;;;;;38.13;15.73;;;9.80;99.90;;;;;;5109630;28;20147;-69
2023/04/17 07:36:04;;;;;;;36.22;15.05;;;9.80;99.90;;;;;;5096162;28;20083;-72
2023/04/17 07:38:33;;;;;;;39.35;17.17;;;9.90;99.90;;;;;;5077817;28;20040;-76
2023/04/17 07:40:59;;;;;;;40.85;16.10;;;10.00;99.90;;;;;;5090600;28;20481;-71
2023/04/17 07:43:30;;;;;;;44.95;16.75;;;10.00;99.90;;;;;;5090284;28;20036;-72
2023/04/17 07:45:57;;;;;;;36.45;15.23;;;10.10;99.90;;;;;;5091411;28;20046;-72
2023/04/17 07:48:23;;;;;;;35.80;15.30;;;10.10;99.90;;;;;;5089430;28;20044;-71
2023/04/17 07:50:50;;;;;;;36.08;15.23;;;10.20;99.90;;;;;;5101093;28;20108;-72
2023/04/17 07:53:17;;;;;;;34.60;15.48;;;10.20;99.90;;;;;;5089526;28;20102;-72
2023/04/17 07:55:43;;;;;;;34.00;15.25;;;10.30;99.90;;;;;;5072101;28;20119;-72
2023/04/17 07:58:10;;;;;;;36.83;16.50;;;10.30;99.90;;;;;;5071896;28;20565;-71
2023/04/17 08:00:37;;;;;;;36.50;16.15;;;10.40;99.90;;;;;;5070711;28;20500;-71
2023/04/17 08:03:04;;;;;;;33.42;14.63;;;10.50;99.90;;;;;;5070673;28;20461;-71
2023/04/17 08:05:30;;;;;;;34.35;14.90;;;10.50;99.90;;;;;;5088289;28;20455;-74
2023/04/17 08:07:55;;;;;;;36.13;13.98;;;10.60;99.90;;;;;;5079837;28;20036;-70
2023/04/17 08:10:21;;;;;;;34.05;14.90;;;10.70;99.90;;;;;;5077439;28;20476;-69
2023/04/17 08:12:47;;;;;;;38.38;16.02;;;10.70;99.90;;;;;;5110144;28;20044;-69
2023/04/17 08:15:13;;;;;;;35.20;14.68;;;10.80;99.90;;;;;;5110562;28;20507;-70
2023/04/17 08:17:38;;;;;;;32.60;13.82;;;10.90;99.90;;;;;;5109602;28;20389;-70
2023/04/17 08:20:10;;;;;;;36.88;15.65;;;11.00;99.90;;;;;;5110073;28;20047;-69
2023/04/17 08:22:43;;;;;;;39.38;16.52;;;11.00;99.90;;;;;;5090834;28;20051;-71
2023/04/17 08:25:09;;;;;;;31.33;14.88;;;11.10;99.90;;;;;;5110607;28;20097;-70
2023/04/17 08:27:40;;;;;;;37.95;16.35;;;11.20;99.90;;;;;;5080047;28;20104;-73
2023/04/17 08:30:07;;;;;;;38.25;16.83;;;11.20;99.90;;;;;;5114537;28;20118;-70
2023/04/17 08:32:40;;;;;;;39.88;15.98;;;11.30;99.90;;;;;;5111260;28;20035;-74
2023/04/17 08:35:08;;;;;;;33.30;15.25;;;11.40;99.90;;;;;;5091072;28;20048;-71
2023/04/17 08:37:34;;;;;;;44.17;16.85;;;11.40;99.90;;;;;;5087352;28;20048;-74
2023/04/17 08:40:03;;;;;;;37.35;16.60;;;11.50;99.90;;;;;;5075816;28;20611;-70
2023/04/17 08:42:30;;;;;;;38.40;17.35;;;11.60;99.90;;;;;;5114212;28;20054;-69
2023/04/17 08:44:59;;;;;;;35.90;15.48;;;11.70;99.90;;;;;;5113259;28;20806;-70
2023/04/17 08:47:27;;;;;;;36.78;15.95;;;11.70;99.90;;;;;;5094683;28;20172;-72
2023/04/17 08:49:54;;;;;;;39.50;17.33;;;11.90;99.90;;;;;;5111850;28;20077;-70
2023/04/17 08:52:20;;;;;;;37.95;17.67;;;11.90;99.90;;;;;;5075770;28;20052;-70
2023/04/17 08:54:46;;;;;;;39.92;18.17;;;12.00;99.90;;;;;;5093900;28;20053;-71
2023/04/17 08:57:12;;;;;;;38.20;17.25;;;12.10;99.90;;;;;;5113034;28;20046;-69
2023/04/17 08:59:37;;;;;;;33.88;17.60;;;12.20;99.90;;;;;;5107342;28;20489;-71
2023/04/17 09:02:08;;;;;;;34.75;17.88;;;12.30;99.90;;;;;;5088023;28;20048;-74
2023/04/17 09:04:42;;;;;;;40.08;17.50;;;12.50;99.90;;;;;;5092908;28;20375;-70
2023/04/17 09:07:12;;;;;;;32.25;15.52;;;12.60;99.90;;;;;;5102298;28;20059;-72
2023/04/17 09:09:55;;;;;;;31.48;16.88;;;12.80;99.90;;;;;;5112898;28;20035;-76
2023/04/17 09:12:24;;;;;;;35.75;17.42;;;13.00;99.90;;;;;;5095308;28;20058;-67
2023/04/17 09:14:49;;;;;;;34.05;16.95;;;13.10;99.90;;;;;;5100108;28;20059;-64
2023/04/17 09:17:16;;;;;;;31.73;16.10;;;13.20;99.90;;;;;;5105550;28;20062;-64
2023/04/17 09:20:06;;;;;;;31.85;15.60;;;13.30;99.90;;;;;;5106302;28;20124;-66
2023/04/17 09:22:35;;;;;;;31.80;15.00;;;13.50;99.90;;;;;;5111808;27;20043;-65
2023/04/17 09:25:01;;;;;;;31.85;14.80;;;13.60;99.90;;;;;;5108650;28;20130;-64
2023/04/17 09:27:28;;;;;;;30.88;15.40;;;13.70;99.90;;;;;;5113564;28;20137;-64
2023/04/17 09:30:02;;;;;;;33.85;15.85;;;13.70;99.90;;;;;;5112971;28;20043;-69
2023/04/17 09:32:30;;;;;;;30.25;14.75;;;13.90;99.90;;;;;;5100474;28;20488;-67
2023/04/17 09:35:00;;;;;;;29.55;14.73;;;14.00;99.90;;;;;;5109987;28;20052;-66
2023/04/17 09:37:49;;;;;;;29.08;14.23;;;14.10;99.90;;;;;;5101340;28;20103;-68
2023/04/17 09:40:16;;;;;;;25.92;12.88;;;14.10;99.90;;;;;;5093561;28;20055;-67
2023/04/17 09:42:54;;;;;;;27.50;13.07;;;14.20;99.90;;;;;;5103516;28;20056;-66
2023/04/17 09:45:21;;;;;;;27.92;15.05;;;14.20;99.90;;;;;;5098087;28;20100;-65
2023/04/17 09:47:47;;;;;;;26.65;13.80;;;14.30;99.90;;;;;;5111710;28;20492;-72
2023/04/17 09:50:20;;;;;;;28.50;12.50;;;14.50;99.90;;;;;;5112519;28;20111;-70
2023/04/17 09:52:51;;;;;;;24.75;12.07;;;14.60;99.90;;;;;;5111560;28;20126;-68
2023/04/17 09:55:22;;;;;;;21.35;11.95;;;14.80;99.90;;;;;;5109380;28;20040;-69
2023/04/17 09:57:51;;;;;;;21.88;12.50;;;15.00;99.90;;;;;;5104488;28;20382;-70
2023/04/17 10:00:19;;;;;;;21.17;12.02;;;15.20;99.90;;;;;;5094836;28;20061;-75
2023/04/17 10:02:48;;;;;;;22.27;11.68;;;15.30;99.90;;;;;;5103032;28;20054;-80
2023/04/17 10:05:14;;;;;;;20.02;11.82;;;15.40;99.90;;;;;;5078327;28;20055;-80
2023/04/17 10:07:39;;;;;;;;;;;15.50;99.90;;;;;;5080691;28;20039;-84
2023/04/17 10:10:09;;;;;;;19.67;9.77;;;15.70;99.90;;;;;;5093615;28;20002;-79
2023/04/17 10:12:38;;;;;;;22.20;10.30;;;15.70;99.90;;;;;;5094232;27;20043;-78
2023/04/17 10:15:12;;;;;;;22.15;10.32;;;15.70;99.90;;;;;;5090871;28;20044;-79
2023/04/17 10:17:38;;;;;;;20.02;10.70;;;15.70;99.90;;;;;;5067245;28;20052;-79
2023/04/17 10:20:18;;;;;;;;;;;15.80;99.90;;;;;;5070263;28;20431;-73
2023/04/17 10:22:55;;;;;;;17.00;8.32;;;15.90;99.90;;;;;;5065265;28;20317;-72
2023/04/17 10:25:23;;;;;;;17.95;8.75;;;16.00;99.90;;;;;;5058791;28;20093;-72
2023/04/17 10:27:53;;;;;;;17.42;9.40;;;16.00;99.90;;;;;;5065769;28;20093;-71
2023/04/17 10:30:21;;;;;;;14.70;8.93;;;16.10;99.90;;;;;;5069663;28;20556;-71
2023/04/17 10:33:18;;;;;;;15.65;7.68;;;16.10;99.90;;;;;;5069068;28;20052;-73
2023/04/17 10:35:44;;;;;;;12.43;7.35;;;16.00;99.90;;;;;;5070392;28;20045;-81
2023/04/17 10:38:10;;;;;;;14.07;7.22;;;16.10;99.90;;;;;;5067372;28;20551;-71
2023/04/17 10:40:36;;;;;;;;;;;16.20;99.90;;;;;;5069769;28;20127;-71
2023/04/17 10:43:22;;;;;;;19.42;7.25;;;16.40;99.90;;;;;;5062729;28;20019;-76
2023/04/17 10:45:51;;;;;;;15.65;7.80;;;16.40;99.90;;;;;;5070077;28;20051;-75
2023/04/17 10:48:48;;;;;;;15.88;7.05;;;16.60;99.90;;;;;;5069861;28;20048;-77
2023/04/17 10:51:22;;;;;;;12.38;7.25;;;16.70;99.90;;;;;;5058409;28;20052;-76
2023/04/17 10:53:55;;;;;;;15.57;6.30;;;16.70;99.90;;;;;;5069543;28;20056;-76
2023/04/17 10:56:49;;;;;;;13.80;6.40;;;16.70;99.90;;;;;;5071084;28;20050;-72
2023/04/17 10:59:16;;;;;;;21.35;7.30;;;16.50;99.90;;;;;;5068256;28;20060;-71
2023/04/17 11:01:48;;;;;;;14.75;7.22;;;16.60;99.90;;;;;;5086368;28;20055;-71
2023/04/17 11:04:27;;;;;;;14.32;7.13;;;16.90;99.90;;;;;;5070120;28;20049;-71
2023/04/17 11:06:53;;;;;;;12.35;7.18;;;17.30;99.90;;;;;;5070356;28;20045;-72
2023/04/17 11:09:23;;;;;;;15.20;7.28;;;17.50;99.90;;;;;;5069751;28;20045;-69
2023/04/17 11:11:49;;;;;;;12.32;7.00;;;17.60;99.90;;;;;;5070362;28;20044;-74
2023/04/17 11:14:16;;;;;;;;;;;18.00;99.90;;;;;;5071132;28;20059;-70
2023/04/17 11:16:43;;;;;;;13.23;6.70;;;18.30;99.90;;;;;;5083421;28;20006;-69
2023/04/17 11:19:11;;;;;;;12.75;6.85;;;18.60;99.90;;;;;;5097157;28;20051;-69
2023/04/17 11:21:44;;;;;;;11.65;6.68;;;18.60;99.90;;;;;;5102160;28;20051;-69
2023/04/17 11:24:10;;;;;;;14.30;7.22;;;18.70;99.90;;;;;;5109514;28;20043;-71
2023/04/17 11:26:46;;;;;;;11.50;6.53;;;19.00;99.90;;;;;;5111088;28;20043;-68
2023/04/17 11:29:16;;;;;;;15.30;7.43;;;19.00;99.90;;;;;;5107363;28;20377;-71
2023/04/17 11:31:46;;;;;;;11.43;6.63;;;19.30;99.90;;;;;;5110250;28;20507;-69
2023/04/17 11:34:15;;;;;;;13.48;6.80;;;19.30;99.90;;;;;;5110071;28;20132;-65
2023/04/17 11:36:55;;;;;;;16.00;7.80;;;19.20;99.90;;;;;;5110350;28;20694;-66
2023/04/17 11:39:28;;;;;;;13.68;7.60;;;18.80;99.90;;;;;;5091791;28;20630;-65
2023/04/17 11:41:55;;;;;;;10.95;6.40;;;18.40;99.90;;;;;;5102513;28;20048;-67
2023/04/17 11:44:22;;;;;;;14.35;6.82;;;18.00;99.90;;;;;;5092704;28;20052;-71
2023/04/17 11:46:52;;;;;;;14.60;7.93;;;18.00;99.90;;;;;;5097017;28;20044;-68
2023/04/17 11:49:26;;;;;;;14.70;7.57;;;18.80;99.90;;;;;;5109995;28;20040;-69
2023/04/17 11:51:52;;;;;;;13.23;7.35;;;18.80;99.50;;;;;;5110379;28;20622;-76
2023/04/17 11:54:37;;;;;;;14.52;7.60;;;18.50;99.10;;;;;;5109764;28;20075;-71
2023/04/17 11:57:10;;;;;;;12.07;6.78;;;19.00;98.10;;;;;;5110065;28;20077;-69
2023/04/17 11:59:37;;;;;;;13.80;6.32;;;19.00;98.70;;;;;;5093029;28;20055;-70
2023/04/17 12:02:05;;;;;;;16.75;7.88;;;19.20;99.10;;;;;;5112608;28;20050;-70
2023/04/17 12:04:33;;;;;;;13.02;7.28;;;19.20;98.70;;;;;;5111736;28;20071;-70
2023/04/17 12:07:00;;;;;;;16.35;8.25;;;18.90;97.70;;;;;;5114451;28;20090;-72
2023/04/17 12:09:30;;;;;;;15.93;7.85;;;18.50;98.40;;;;;;5093540;28;20461;-70
2023/04/17 12:11:57;;;;;;;17.80;8.27;;;18.30;99.60;;;;;;5104546;28;20051;-70
2023/04/17 12:14:23;;;;;;;15.50;8.10;;;18.10;99.90;;;;;;5114566;28;20404;-68
2023/04/17 12:16:50;;;;;;;17.15;8.88;;;18.20;99.90;;;;;;5114103;28;20105;-72
2023/04/17 12:19:16;;;;;;;16.45;7.53;;;18.90;99.90;;;;;;5113557;28;20071;-72
2023/04/17 12:21:42;;;;;;;14.18;7.82;;;20.00;99.90;;;;;;5114546;28;20086;-71
2023/04/17 12:24:08;;;;;;;15.30;7.03;;;20.70;99.70;;;;;;5095439;28;20055;-71
2023/04/17 12:26:34;;;;;;;11.73;6.60;;;21.60;98.10;;;;;;5112391;28;20071;-72
2023/04/17 12:29:00;;;;;;;15.65;7.45;;;22.60;97.10;;;;;;5108000;28;20080;-71
2023/04/17 12:31:26;;;;;;;15.60;7.78;;;23.30;93.60;;;;;;5094618;28;20071;-71
2023/04/17 12:33:51;;;;;;;11.40;6.85;;;24.00;91.30;;;;;;5093188;28;20059;-71
2023/04/17 12:36:17;;;;;;;14.88;7.35;;;24.50;85.50;;;;;;5076554;28;20048;-71